首页
METAR-TAF:

METAR-TAF

机场 :

邁亞密國際機場

迈阿密, 佛罗里达州, 美国

纬度: 25-47-26N, 经度: 080-18-59W, 海拔: 3米

当前天气观测

该预报发布于23分钟前的07:53 UTC
静风
温度 24°C
湿度 89%
气压 1017 hPa
能見度: 16.1公里
少量云层高于3000英尺
少量云层高于9000英尺
散云层高于25000英尺

METAR: KMIA 200753Z 00000KT 10SM FEW030 FEW090 SCT250 24/22 A3003 RMK AO2 SLP170 T02390222

时间: 03:16 (08:16 UTC)

预报

该预报发布于2小时和46分钟前的05:30 UTC
预报有效从20日的 06点(UTC)到 21日的 12点(UTC)
风速4节,风向东转东南
能見度: 10公里
散云层高于3000英尺
多云层高于10000英尺
从 20日的 1800点(UTC)
风速8节,风向东南
能見度: 10公里
散云层高于3500英尺
多云层高于6000英尺
从 20日的 2300点(UTC)
风速3节,风向
能見度: 10公里
散云层高于4000英尺
多云层高于10000英尺
多云层高于25000英尺
附近有阵雨
从 21日的 0300点(UTC)
风速节,风向
能見度: 10公里
散云层高于3500英尺

TAF: KMIA 200530Z 2006/2112 12004KT P6SM SCT030 BKN100 FM201800 13008KT P6SM SCT035 BKN060 FM202300 35003KT P6SM VCSH SCT040 BKN100 BKN250 FM210300 00000KT P6SM SCT035

超过4000个机场的气象观测和天气预报(METAR&TAF报告)。

可查询的气象台以黄色和红色小点在地图上表示。

将鼠标移到小点上方,可查看气象台名称。

然后点击查看天气观测和预报。

如需切换地图:点击带黑十字的绿色按钮放大地图;点击带横线的绿色按钮缩小地图;或者点击绿色箭头查看邻近地区的地图。


METAR-TAF: